createdAt,value
2017-12-12T00:01:20.883Z,4.80
2017-12-12T00:03:48.359Z,5.00
2017-12-12T00:06:16.575Z,4.80
2017-12-12T00:08:44.089Z,4.80
2017-12-12T00:11:11.555Z,4.90
2017-12-12T00:13:39.006Z,5.00
2017-12-12T00:16:06.464Z,4.90
2017-12-12T00:18:33.934Z,4.90
2017-12-12T00:21:01.463Z,4.90
2017-12-12T00:23:29.029Z,4.90
2017-12-12T00:25:57.254Z,4.90
2017-12-12T00:28:24.699Z,4.90
2017-12-12T00:30:52.167Z,4.80
2017-12-12T00:33:19.616Z,4.80
2017-12-12T00:35:47.069Z,4.80
2017-12-12T00:38:14.539Z,4.70
2017-12-12T00:40:41.983Z,4.80
2017-12-12T00:43:09.466Z,4.90
2017-12-12T00:45:37.014Z,4.90
2017-12-12T00:48:04.494Z,4.80
2017-12-12T00:50:31.984Z,4.90
2017-12-12T00:53:00.228Z,4.80
2017-12-12T00:55:27.790Z,4.80
2017-12-12T00:57:55.343Z,4.80
2017-12-12T01:00:22.791Z,4.90
2017-12-12T01:02:50.254Z,4.90
2017-12-12T01:05:17.703Z,4.90
2017-12-12T01:07:45.269Z,4.90
2017-12-12T01:10:12.888Z,4.90
2017-12-12T01:12:40.328Z,4.80
2017-12-12T01:15:07.809Z,4.80
2017-12-12T01:17:35.259Z,4.70
2017-12-12T01:20:02.711Z,4.80
2017-12-12T01:22:30.266Z,4.80
2017-12-12T01:24:57.728Z,4.70
2017-12-12T01:27:25.219Z,4.70
2017-12-12T01:29:53.491Z,4.80
2017-12-12T01:32:22.488Z,4.80
2017-12-12T01:34:50.759Z,4.90
2017-12-12T01:37:20.304Z,4.80
2017-12-12T01:39:47.751Z,4.90
2017-12-12T01:42:15.971Z,4.90
2017-12-12T01:44:43.434Z,4.90
2017-12-12T01:47:10.903Z,5.00
2017-12-12T01:49:38.465Z,5.00
2017-12-12T01:52:06.679Z,4.90
2017-12-12T01:54:34.190Z,4.90
2017-12-12T01:57:01.634Z,4.90
2017-12-12T01:59:29.087Z,5.00
2017-12-12T02:01:56.559Z,5.10
2017-12-12T02:04:24.020Z,5.10
2017-12-12T02:06:51.467Z,5.00
2017-12-12T02:09:18.935Z,5.00
2017-12-12T02:11:46.423Z,5.00
2017-12-12T02:14:13.947Z,5.00
2017-12-12T02:16:42.164Z,4.80
2017-12-12T02:19:09.663Z,4.80
2017-12-12T02:21:37.182Z,4.90
2017-12-12T02:24:04.619Z,4.90
2017-12-12T02:26:32.079Z,4.90
2017-12-12T02:28:59.603Z,4.90
2017-12-12T02:31:28.567Z,4.90
2017-12-12T02:33:56.027Z,4.90
2017-12-12T02:36:23.483Z,5.10
2017-12-12T02:38:50.930Z,5.20
2017-12-12T02:41:18.466Z,5.10
2017-12-12T02:43:45.942Z,5.20
2017-12-12T02:46:13.392Z,5.10
2017-12-12T02:48:40.843Z,5.20
2017-12-12T02:51:08.311Z,5.30
2017-12-12T02:53:35.790Z,5.30
2017-12-12T02:56:03.240Z,5.20
2017-12-12T02:58:30.798Z,5.20
2017-12-12T03:00:59.008Z,5.10
2017-12-12T03:03:26.527Z,5.10
2017-12-12T03:05:54.003Z,5.10
2017-12-12T03:08:22.218Z,5.10
2017-12-12T03:10:49.716Z,5.10
2017-12-12T03:13:17.986Z,5.20
2017-12-12T03:15:46.323Z,5.10
2017-12-12T03:18:13.889Z,5.10
2017-12-12T03:20:41.381Z,5.20
2017-12-12T03:23:09.656Z,5.30
2017-12-12T03:25:37.102Z,5.20
2017-12-12T03:28:04.567Z,5.30
2017-12-12T03:30:32.119Z,5.20
2017-12-12T03:32:59.674Z,5.20
2017-12-12T03:35:27.123Z,5.20
2017-12-12T03:37:54.594Z,5.10
2017-12-12T03:40:22.823Z,5.00
2017-12-12T03:42:50.278Z,5.00
2017-12-12T03:45:17.774Z,5.00
2017-12-12T03:47:45.223Z,4.90
2017-12-12T03:50:12.695Z,4.90
2017-12-12T03:52:40.914Z,4.80
2017-12-12T03:55:08.416Z,4.70
2017-12-12T03:57:36.687Z,4.80
2017-12-12T04:00:04.902Z,4.90
2017-12-12T04:02:33.154Z,5.00
2017-12-12T04:05:00.691Z,4.90
2017-12-12T04:07:28.143Z,5.10
2017-12-12T04:09:55.730Z,5.20
2017-12-12T04:12:23.948Z,5.10
2017-12-12T04:14:51.399Z,5.10
2017-12-12T04:17:18.897Z,5.10
2017-12-12T04:19:47.107Z,5.30
2017-12-12T04:22:14.587Z,5.20
2017-12-12T04:24:42.079Z,5.30
2017-12-12T04:27:11.031Z,5.20
2017-12-12T04:29:38.491Z,5.20
2017-12-12T04:32:05.990Z,5.30
2017-12-12T04:34:35.083Z,5.30
2017-12-12T04:37:02.518Z,5.30
2017-12-12T04:39:29.962Z,5.40
2017-12-12T04:41:57.538Z,5.50
2017-12-12T04:44:24.983Z,5.50
2017-12-12T04:46:52.431Z,5.40
2017-12-12T04:49:19.895Z,5.40
2017-12-12T04:51:47.346Z,5.40
2017-12-12T04:54:14.929Z,5.50
2017-12-12T04:56:43.147Z,5.30
2017-12-12T04:59:10.664Z,5.30
2017-12-12T05:01:38.887Z,5.40
2017-12-12T05:04:06.384Z,5.40
2017-12-12T05:06:33.901Z,5.50
2017-12-12T05:09:01.334Z,5.50
2017-12-12T05:11:28.913Z,5.50
2017-12-12T05:13:56.372Z,5.70
2017-12-12T05:16:23.815Z,5.60
2017-12-12T05:18:51.351Z,5.60
2017-12-12T05:21:20.615Z,5.60
2017-12-12T05:23:48.063Z,5.60
2017-12-12T05:26:15.638Z,5.70
2017-12-12T05:28:44.588Z,5.40
2017-12-12T05:31:12.047Z,5.50
2017-12-12T05:33:39.531Z,5.70
2017-12-12T05:36:06.979Z,5.60
2017-12-12T05:38:34.447Z,5.60
2017-12-12T05:41:03.441Z,5.50
2017-12-12T05:43:30.882Z,5.50
2017-12-12T05:45:58.365Z,5.60
2017-12-12T05:48:26.581Z,5.60
2017-12-12T05:50:54.091Z,5.50
2017-12-12T05:53:21.551Z,5.60
2017-12-12T05:55:49.767Z,5.30
2017-12-12T05:58:17.258Z,5.30
2017-12-12T06:00:44.727Z,5.40
2017-12-12T06:03:12.279Z,5.30
2017-12-12T06:05:39.756Z,5.30
2017-12-12T06:08:08.008Z,5.20
2017-12-12T06:10:35.451Z,5.10
2017-12-12T06:13:03.015Z,5.10
2017-12-12T06:15:30.464Z,5.00
2017-12-12T06:17:57.940Z,5.10
2017-12-12T06:20:26.155Z,4.90
2017-12-12T06:22:53.669Z,4.90
2017-12-12T06:25:21.144Z,4.80
2017-12-12T06:27:49.354Z,4.70
2017-12-12T06:30:16.843Z,4.60
2017-12-12T06:32:44.399Z,4.50
2017-12-12T06:35:11.843Z,4.50
2017-12-12T06:37:39.294Z,4.40
2017-12-12T06:40:06.760Z,4.30
2017-12-12T06:42:34.227Z,4.40
2017-12-12T06:45:01.847Z,4.40
2017-12-12T06:47:29.343Z,4.30
2017-12-12T06:49:58.338Z,4.20
2017-12-12T06:52:26.014Z,4.20
2017-12-12T06:54:54.247Z,4.30
2017-12-12T06:57:21.799Z,4.30
2017-12-12T06:59:49.343Z,4.10
2017-12-12T07:02:16.822Z,4.20
2017-12-12T07:04:44.279Z,4.10
2017-12-12T07:07:11.735Z,4.00
2017-12-12T07:09:39.320Z,4.00
2017-12-12T07:12:06.782Z,4.00
2017-12-12T07:14:34.325Z,4.20
2017-12-12T07:17:01.911Z,4.20
2017-12-12T07:19:30.261Z,4.20
2017-12-12T07:21:57.712Z,4.10
2017-12-12T07:24:25.157Z,4.20
2017-12-12T07:26:52.647Z,4.00
2017-12-12T07:29:20.858Z,4.00
2017-12-12T07:31:48.424Z,3.90
2017-12-12T07:34:15.879Z,3.80
2017-12-12T07:36:43.366Z,3.80
2017-12-12T07:39:10.823Z,3.90
2017-12-12T07:41:38.282Z,3.90
2017-12-12T07:44:05.756Z,3.90
2017-12-12T07:46:34.019Z,3.80
2017-12-12T07:49:02.292Z,3.70
2017-12-12T07:51:30.543Z,3.60
2017-12-12T07:53:58.023Z,3.60
2017-12-12T07:56:26.304Z,3.80
2017-12-12T07:58:54.528Z,3.80
2017-12-12T08:01:22.992Z,3.70
2017-12-12T08:03:50.555Z,3.60
2017-12-12T08:06:18.011Z,3.70
2017-12-12T08:08:45.455Z,3.70
2017-12-12T08:11:13.002Z,3.70
2017-12-12T08:13:41.239Z,3.70
2017-12-12T08:16:08.754Z,3.70
2017-12-12T08:18:36.211Z,3.80
2017-12-12T08:21:03.682Z,3.70
2017-12-12T08:23:31.159Z,3.70
2017-12-12T08:25:58.782Z,3.70
2017-12-12T08:28:26.280Z,3.70
2017-12-12T08:30:55.238Z,3.70
2017-12-12T08:33:22.698Z,3.70
2017-12-12T08:35:51.772Z,3.70
2017-12-12T08:38:19.275Z,3.70
2017-12-12T08:40:46.731Z,3.80
2017-12-12T08:43:14.188Z,3.80
2017-12-12T08:45:42.418Z,3.90
2017-12-12T08:48:09.919Z,3.90
2017-12-12T08:50:39.010Z,4.00
2017-12-12T08:53:07.283Z,4.10
2017-12-12T08:55:34.842Z,4.00
2017-12-12T08:58:02.315Z,4.00
2017-12-12T09:00:29.766Z,4.00
2017-12-12T09:02:57.980Z,3.90
2017-12-12T09:05:25.451Z,3.90
2017-12-12T09:07:52.899Z,3.80
2017-12-12T09:10:20.363Z,3.70
2017-12-12T09:12:47.857Z,3.70
2017-12-12T09:15:16.119Z,4.00
2017-12-12T09:17:43.675Z,3.90
2017-12-12T09:20:11.158Z,4.00
2017-12-12T09:22:40.216Z,3.80
2017-12-12T09:25:07.663Z,3.80
2017-12-12T09:27:35.166Z,3.80
2017-12-12T09:30:03.424Z,3.90
2017-12-12T09:32:31.631Z,3.90
2017-12-12T09:34:59.162Z,3.80
2017-12-12T09:37:26.626Z,3.80
2017-12-12T09:39:54.842Z,3.80
2017-12-12T09:42:22.311Z,3.70
2017-12-12T09:44:49.767Z,3.80
2017-12-12T09:47:17.253Z,3.70
2017-12-12T09:49:44.699Z,3.70
2017-12-12T09:52:12.163Z,3.70
2017-12-12T09:54:39.620Z,3.80
2017-12-12T09:57:07.859Z,4.00
2017-12-12T09:59:35.425Z,4.00
2017-12-12T10:02:02.876Z,4.10
2017-12-12T10:04:30.334Z,4.20
2017-12-12T10:06:57.795Z,4.20
2017-12-12T10:09:25.263Z,4.20
2017-12-12T10:11:52.839Z,4.40
2017-12-12T10:14:21.102Z,4.30
2017-12-12T10:16:48.557Z,4.30
2017-12-12T10:19:16.791Z,4.40
2017-12-12T10:21:44.285Z,4.40
2017-12-12T10:24:12.793Z,4.50
2017-12-12T10:26:40.323Z,4.50
2017-12-12T10:29:07.776Z,4.40
2017-12-12T10:31:36.731Z,4.50
2017-12-12T10:34:04.215Z,4.50
2017-12-12T10:36:31.778Z,4.50
2017-12-12T10:39:00.756Z,4.40
2017-12-12T10:41:28.220Z,4.40
2017-12-12T10:43:55.685Z,4.60
2017-12-12T10:46:23.137Z,4.80
2017-12-12T10:48:50.706Z,4.70
2017-12-12T10:51:18.932Z,4.60
2017-12-12T10:53:46.377Z,4.60
2017-12-12T10:56:13.839Z,4.60
2017-12-12T10:58:41.303Z,4.60
2017-12-12T11:01:08.777Z,4.60
2017-12-12T11:03:36.351Z,4.50
2017-12-12T11:06:03.815Z,4.50
2017-12-12T11:08:31.290Z,4.50
2017-12-12T11:10:59.507Z,4.70
2017-12-12T11:13:26.993Z,4.60
2017-12-12T11:15:54.806Z,4.80
2017-12-12T11:18:22.313Z,4.80
2017-12-12T11:20:49.762Z,4.70
2017-12-12T11:23:17.219Z,4.60
2017-12-12T11:25:44.662Z,4.50
2017-12-12T11:28:12.106Z,4.50
2017-12-12T11:30:39.607Z,4.50
2017-12-12T11:33:07.819Z,4.50
2017-12-12T11:35:35.303Z,4.50
2017-12-12T11:38:02.764Z,4.50
2017-12-12T11:40:30.206Z,4.40
2017-12-12T11:42:57.775Z,4.30
2017-12-12T11:45:25.812Z,3.80
2017-12-12T11:47:53.313Z,3.70
2017-12-12T11:50:20.763Z,3.80
2017-12-12T11:52:48.211Z,3.90
2017-12-12T11:55:15.681Z,3.80
2017-12-12T11:57:43.236Z,3.80
2017-12-12T12:00:10.727Z,3.90
2017-12-12T12:02:38.979Z,4.10
2017-12-12T12:05:07.211Z,4.20
2017-12-12T12:07:34.663Z,4.20
2017-12-12T12:10:02.122Z,4.30
2017-12-12T12:12:29.769Z,4.30
2017-12-12T12:14:57.266Z,4.30
2017-12-12T12:17:24.823Z,4.20
2017-12-12T12:19:52.295Z,4.10
2017-12-12T12:22:19.855Z,4.20
2017-12-12T12:24:47.407Z,4.10
2017-12-12T12:27:15.615Z,3.90
2017-12-12T12:29:43.063Z,3.90
2017-12-12T12:32:10.584Z,4.00
2017-12-12T12:34:38.139Z,3.90
2017-12-12T12:37:05.602Z,3.90
2017-12-12T12:39:33.147Z,3.90
2017-12-12T12:42:00.595Z,3.70
2017-12-12T12:44:28.124Z,3.80
2017-12-12T12:46:55.599Z,3.80
2017-12-12T12:49:23.088Z,3.90
2017-12-12T12:51:52.077Z,3.70
2017-12-12T12:54:19.528Z,3.70
2017-12-12T12:56:47.011Z,3.80
2017-12-12T12:59:15.251Z,3.80
2017-12-12T13:01:42.745Z,3.80
2017-12-12T13:04:11.004Z,3.60
2017-12-12T13:06:39.228Z,3.50
2017-12-12T13:09:06.690Z,3.40
2017-12-12T13:11:34.165Z,3.50
2017-12-12T13:14:01.626Z,3.40
2017-12-12T13:16:29.109Z,3.60
2017-12-12T13:18:57.314Z,3.50
2017-12-12T13:21:24.772Z,3.40
2017-12-12T13:23:54.080Z,3.40
2017-12-12T13:26:21.529Z,3.30
2017-12-12T13:28:49.043Z,3.50
2017-12-12T13:31:17.289Z,3.40
2017-12-12T13:33:44.739Z,3.30
2017-12-12T13:36:12.230Z,3.40
2017-12-12T13:38:40.478Z,3.40
2017-12-12T13:41:07.943Z,3.30
2017-12-12T13:43:36.196Z,3.40
2017-12-12T13:46:03.643Z,3.40
2017-12-12T13:48:31.103Z,3.50
2017-12-12T13:50:58.597Z,3.40
2017-12-12T13:53:26.913Z,3.40
2017-12-12T13:55:54.350Z,3.40
2017-12-12T13:58:21.883Z,3.40
2017-12-12T14:00:49.363Z,3.50
2017-12-12T14:03:16.834Z,3.50
2017-12-12T14:05:44.301Z,3.50
2017-12-12T14:08:11.757Z,3.50
2017-12-12T14:10:39.238Z,3.50
2017-12-12T14:13:06.687Z,3.50
2017-12-12T14:15:34.215Z,3.40
2017-12-12T14:18:01.693Z,3.50
2017-12-12T14:20:29.165Z,3.60
2017-12-12T14:22:56.622Z,3.70
2017-12-12T14:25:25.618Z,3.60
2017-12-12T14:27:53.079Z,3.60
2017-12-12T14:30:20.595Z,3.50
2017-12-12T14:32:48.071Z,3.40
2017-12-12T14:35:15.557Z,3.40
2017-12-12T14:37:43.845Z,3.50
2017-12-12T14:40:12.107Z,3.50
2017-12-12T14:42:40.364Z,3.30
2017-12-12T14:45:07.840Z,3.30
2017-12-12T14:47:35.310Z,3.40
2017-12-12T14:50:04.355Z,3.40
2017-12-12T14:52:31.838Z,3.30
2017-12-12T14:54:59.293Z,3.30
2017-12-12T14:57:28.269Z,3.20
2017-12-12T14:59:55.846Z,3.30
2017-12-12T15:02:24.073Z,3.40
2017-12-12T15:04:51.560Z,3.40
2017-12-12T15:07:20.557Z,3.20
2017-12-12T15:09:49.555Z,3.20
2017-12-12T15:12:17.017Z,3.10
2017-12-12T15:14:45.255Z,3.20
2017-12-12T15:17:12.786Z,3.10
2017-12-12T15:19:40.282Z,3.30
2017-12-12T15:22:08.563Z,3.30
2017-12-12T15:24:36.027Z,3.20
2017-12-12T15:27:03.479Z,3.20
2017-12-12T15:29:31.720Z,3.10
2017-12-12T15:31:59.190Z,3.10
2017-12-12T15:34:26.644Z,3.20
2017-12-12T15:36:54.143Z,3.20
2017-12-12T15:39:22.409Z,3.20
2017-12-12T15:41:50.630Z,3.30
2017-12-12T15:44:18.181Z,3.20
2017-12-12T15:46:46.370Z,3.10
2017-12-12T15:49:13.819Z,3.10
2017-12-12T15:51:41.359Z,3.10
2017-12-12T15:54:08.851Z,3.00
2017-12-12T15:56:36.351Z,3.10
2017-12-12T15:59:05.068Z,3.20
2017-12-12T16:01:32.524Z,3.10
2017-12-12T16:04:00.048Z,3.20
2017-12-12T16:06:28.254Z,3.20
2017-12-12T16:08:55.750Z,3.20
2017-12-12T16:11:24.006Z,3.30
2017-12-12T16:13:51.489Z,3.30
2017-12-12T16:16:19.732Z,3.10
2017-12-12T16:18:47.194Z,3.10
2017-12-12T16:21:14.674Z,3.20
2017-12-12T16:23:42.206Z,3.20
2017-12-12T16:26:09.686Z,3.20
2017-12-12T16:28:37.948Z,3.30
2017-12-12T16:31:05.420Z,3.30
2017-12-12T16:33:33.673Z,3.10
2017-12-12T16:36:01.125Z,3.00
2017-12-12T16:38:28.615Z,3.10
2017-12-12T16:40:56.849Z,3.20
2017-12-12T16:43:24.312Z,3.20
2017-12-12T16:45:51.830Z,3.20
2017-12-12T16:48:19.289Z,3.30
2017-12-12T16:50:46.759Z,3.20
2017-12-12T16:53:14.214Z,3.20
2017-12-12T16:55:41.678Z,3.10
2017-12-12T16:58:09.152Z,3.00
2017-12-12T17:00:36.655Z,3.00
2017-12-12T17:03:04.109Z,3.10
2017-12-12T17:05:31.561Z,3.00
2017-12-12T17:07:59.037Z,3.00
2017-12-12T17:10:26.546Z,3.00
2017-12-12T17:12:54.866Z,3.10
2017-12-12T17:15:22.339Z,3.10
2017-12-12T17:17:49.801Z,3.10
2017-12-12T17:20:17.387Z,3.10
2017-12-12T17:22:46.340Z,3.00
2017-12-12T17:25:13.792Z,3.00
2017-12-12T17:27:41.293Z,3.10
2017-12-12T17:30:08.761Z,3.00
2017-12-12T17:32:37.015Z,3.10
2017-12-12T17:35:05.279Z,3.00
2017-12-12T17:37:33.973Z,3.10
2017-12-12T17:40:02.942Z,3.10
2017-12-12T17:42:30.471Z,3.20
2017-12-12T17:44:57.985Z,3.20
2017-12-12T17:47:26.216Z,3.20
2017-12-12T17:49:53.694Z,3.10
2017-12-12T17:52:21.153Z,3.10
2017-12-12T17:54:48.608Z,3.10
2017-12-12T17:57:16.079Z,3.00
2017-12-12T17:59:45.039Z,3.00
2017-12-12T18:02:12.505Z,3.00
2017-12-12T18:04:39.960Z,3.00
2017-12-12T18:07:07.431Z,3.10
2017-12-12T18:09:35.674Z,3.20
2017-12-12T18:12:03.157Z,3.10
2017-12-12T18:14:30.623Z,3.20
2017-12-12T18:16:59.593Z,3.10
2017-12-12T18:19:27.064Z,3.10
2017-12-12T18:21:55.310Z,2.90
2017-12-12T18:24:22.811Z,2.90
2017-12-12T18:26:51.037Z,3.10
2017-12-12T18:29:18.479Z,3.10
2017-12-12T18:31:45.967Z,3.00
2017-12-12T18:34:13.489Z,3.40
2017-12-12T18:36:40.964Z,3.50
2017-12-12T18:39:08.431Z,3.40
2017-12-12T18:41:35.918Z,3.40
2017-12-12T18:44:04.174Z,3.20
2017-12-12T18:46:31.641Z,3.20
2017-12-12T18:48:59.869Z,3.00
2017-12-12T18:51:27.332Z,2.90
2017-12-12T18:53:54.799Z,3.00
2017-12-12T18:56:22.249Z,2.90
2017-12-12T18:58:49.757Z,2.90
2017-12-12T19:01:18.014Z,2.80
2017-12-12T19:03:46.241Z,2.80
2017-12-12T19:06:13.717Z,2.80
2017-12-12T19:08:41.197Z,2.90
2017-12-12T19:11:09.413Z,3.00
2017-12-12T19:13:36.962Z,2.90
2017-12-12T19:16:04.432Z,3.00
2017-12-12T19:18:31.892Z,2.90
2017-12-12T19:20:59.351Z,2.80
2017-12-12T19:23:26.866Z,2.80
2017-12-12T19:25:55.103Z,3.10
2017-12-12T19:28:22.558Z,3.00
2017-12-12T19:30:50.025Z,3.00
2017-12-12T19:33:18.250Z,3.00
2017-12-12T19:35:45.739Z,2.90
2017-12-12T19:38:13.206Z,2.80
2017-12-12T19:40:40.662Z,2.80
2017-12-12T19:43:08.232Z,2.90
2017-12-12T19:45:36.498Z,2.80
2017-12-12T19:48:05.468Z,2.70
2017-12-12T19:50:32.933Z,2.70
2017-12-12T19:53:00.412Z,2.70
2017-12-12T19:55:28.651Z,2.70
2017-12-12T19:57:56.091Z,2.60
2017-12-12T20:00:23.548Z,2.70
2017-12-12T20:02:51.011Z,2.70
2017-12-12T20:05:18.478Z,2.70
2017-12-12T20:07:46.544Z,2.80
2017-12-12T20:10:14.050Z,2.80
2017-12-12T20:12:42.304Z,2.70
2017-12-12T20:15:10.538Z,2.70
2017-12-12T20:17:38.053Z,2.60
2017-12-12T20:20:06.258Z,2.60
2017-12-12T20:22:33.717Z,2.50
2017-12-12T20:25:01.209Z,2.70
2017-12-12T20:27:28.646Z,2.60
2017-12-12T20:29:56.392Z,2.50
2017-12-12T20:32:23.863Z,2.60
2017-12-12T20:34:51.348Z,2.60
2017-12-12T20:37:19.592Z,2.60
2017-12-12T20:39:47.039Z,2.50
2017-12-12T20:42:14.526Z,2.60
2017-12-12T20:44:42.005Z,2.70
2017-12-12T20:47:10.235Z,2.60
2017-12-12T20:49:37.843Z,2.50
2017-12-12T20:52:06.144Z,2.50
2017-12-12T20:54:33.671Z,2.40
2017-12-12T20:57:02.067Z,2.40
2017-12-12T20:59:29.641Z,2.30
2017-12-12T21:01:57.121Z,2.50
2017-12-12T21:04:24.750Z,2.50
2017-12-12T21:06:52.494Z,2.50
2017-12-12T21:09:19.996Z,2.50
2017-12-12T21:11:47.464Z,2.60
2017-12-12T21:14:14.939Z,2.50
2017-12-12T21:16:44.030Z,2.40
2017-12-12T21:19:12.249Z,2.50
2017-12-12T21:21:39.722Z,2.50
2017-12-12T21:24:07.163Z,2.40
2017-12-12T21:26:34.631Z,2.40
2017-12-12T21:29:02.125Z,2.60
2017-12-12T21:31:29.567Z,2.60
2017-12-12T21:33:57.033Z,2.70
2017-12-12T21:36:25.276Z,2.70
2017-12-12T21:38:52.754Z,2.60
2017-12-12T21:41:20.278Z,2.50
2017-12-12T21:43:47.781Z,2.60
2017-12-12T21:46:15.266Z,2.50
2017-12-12T21:48:42.784Z,2.50
2017-12-12T21:51:11.016Z,2.50
2017-12-12T21:53:38.489Z,2.40
2017-12-12T21:56:05.942Z,2.40
2017-12-12T21:58:33.429Z,2.50
2017-12-12T22:01:00.899Z,2.40
2017-12-12T22:03:29.164Z,2.30
2017-12-12T22:05:56.637Z,2.30
2017-12-12T22:08:24.865Z,2.50
2017-12-12T22:10:52.340Z,2.40
2017-12-12T22:13:19.909Z,2.50
2017-12-12T22:15:48.142Z,2.40
2017-12-12T22:18:15.649Z,2.30
2017-12-12T22:20:43.913Z,2.20
2017-12-12T22:23:13.005Z,2.10
2017-12-12T22:25:41.330Z,2.20
2017-12-12T22:28:08.775Z,2.10
2017-12-12T22:30:36.238Z,2.20
2017-12-12T22:33:03.725Z,2.10
2017-12-12T22:35:31.199Z,2.10
2017-12-12T22:37:58.661Z,2.20
2017-12-12T22:40:26.908Z,2.00
2017-12-12T22:42:54.394Z,2.00
2017-12-12T22:45:23.419Z,1.90
2017-12-12T22:47:50.893Z,1.90
2017-12-12T22:50:18.443Z,1.90
2017-12-12T22:52:45.939Z,2.00
2017-12-12T22:55:13.411Z,2.00
2017-12-12T22:57:41.680Z,1.90
2017-12-12T23:00:09.147Z,1.80
2017-12-12T23:02:36.640Z,1.90
2017-12-12T23:05:04.124Z,1.90
2017-12-12T23:07:31.625Z,1.90
2017-12-12T23:09:59.881Z,1.90
2017-12-12T23:12:28.124Z,1.80
2017-12-12T23:14:55.699Z,1.70
2017-12-12T23:17:23.154Z,1.70
2017-12-12T23:19:50.652Z,1.60
2017-12-12T23:22:18.964Z,1.50
2017-12-12T23:24:46.421Z,1.40
2017-12-12T23:27:13.919Z,1.40
2017-12-12T23:29:42.141Z,1.40
2017-12-12T23:32:09.615Z,1.30
2017-12-12T23:34:37.092Z,1.30
2017-12-12T23:37:04.667Z,1.30
2017-12-12T23:39:33.019Z,1.20
2017-12-12T23:42:00.481Z,1.20
2017-12-12T23:44:27.964Z,1.20
2017-12-12T23:46:56.196Z,1.20
2017-12-12T23:49:23.677Z,1.10
2017-12-12T23:51:51.218Z,1.10
2017-12-12T23:54:18.718Z,1.00
2017-12-12T23:56:46.244Z,0.90
2017-12-12T23:59:14.475Z,0.90
